Time;durP1;ratioP1;P1;durP2;ratioP2;P2;SDS_P1;SDS_P2;PMS_P1;PMS_P2;Temp;Humidity;BMP_temperature;BMP_pressure;BME280_temperature;BME280_humidity;BME280_pressure;Samples;Min_cycle;Max_cycle;Signal;HPM_P1;HPM_P2
2022/10/06 00:00:48;;;;;;;30.63;10.27;;;7.50;99.90;;;;;;4372449;28;658724;-68
2022/10/06 00:03:36;;;;;;;32.83;11.37;;;7.40;99.90;;;;;;4345488;28;657648;-69
2022/10/06 00:06:23;;;;;;;30.17;9.83;;;7.30;99.90;;;;;;4371892;28;658502;-69
2022/10/06 00:09:12;;;;;;;25.67;9.50;;;7.40;99.90;;;;;;4348637;28;656441;-68
2022/10/06 00:11:59;;;;;;;20.83;9.23;;;7.30;99.90;;;;;;4374416;28;656705;-68
2022/10/06 00:14:46;;;;;;;20.33;8.60;;;7.30;99.90;;;;;;4350361;28;656711;-69
2022/10/06 00:17:33;;;;;;;19.67;8.20;;;7.60;99.90;;;;;;4375457;28;658312;-69
2022/10/06 00:20:21;;;;;;;27.37;8.57;;;7.70;99.90;;;;;;4353495;28;656917;-68
2022/10/06 00:23:08;;;;;;;17.10;7.90;;;7.90;99.90;;;;;;4374136;28;656913;-68
2022/10/06 00:25:57;;;;;;;15.85;8.05;;;8.00;99.90;;;;;;4354771;28;657016;-69
2022/10/06 00:28:44;;;;;;;21.03;8.67;;;8.00;99.90;;;;;;4372620;28;656525;-69
2022/10/06 00:31:33;;;;;;;17.77;7.73;;;8.10;99.90;;;;;;4347827;28;656840;-69
2022/10/06 00:34:20;;;;;;;23.17;8.20;;;8.20;99.90;;;;;;4358444;28;656942;-69
2022/10/06 00:37:07;;;;;;;16.90;7.93;;;8.50;99.90;;;;;;4377514;28;656906;-70
2022/10/06 00:39:54;;;;;;;22.07;7.97;;;9.00;99.90;;;;;;4369214;28;656511;-70
2022/10/06 00:42:54;;;;;;;21.20;7.77;;;9.00;99.90;;;;;;4355069;28;656900;-70
2022/10/06 00:45:42;;;;;;;18.50;7.67;;;9.20;99.90;;;;;;4324368;28;657598;-70
2022/10/06 00:48:30;;;;;;;18.47;7.53;;;9.50;99.90;;;;;;4368785;28;656752;-69
2022/10/06 00:51:17;;;;;;;16.03;6.43;;;9.60;99.90;;;;;;4377181;28;657091;-70
2022/10/06 00:54:04;;;;;;;17.77;6.30;;;9.60;99.90;;;;;;4371182;28;656338;-70
2022/10/06 00:56:52;;;;;;;12.17;6.00;;;9.60;99.90;;;;;;4353506;28;657602;-70
2022/10/06 00:59:40;;;;;;;13.67;5.80;;;9.60;99.90;;;;;;4366315;28;656438;-70
2022/10/06 01:02:30;;;;;;;12.87;6.00;;;9.80;99.90;;;;;;4345902;28;658417;-70
2022/10/06 01:05:20;;;;;;;10.93;5.20;;;9.80;99.90;;;;;;4341349;28;657654;-70
2022/10/06 01:08:07;;;;;;;15.33;5.20;;;10.00;99.90;;;;;;4354355;28;658307;-70
2022/10/06 01:10:54;;;;;;;10.90;5.13;;;10.10;99.90;;;;;;4370650;28;657708;-70
2022/10/06 01:13:42;;;;;;;9.40;5.57;;;10.40;99.90;;;;;;4350195;28;657616;-70
2022/10/06 01:16:30;;;;;;;15.87;5.80;;;10.60;99.90;;;;;;4371661;28;657337;-70
2022/10/06 01:19:21;;;;;;;13.13;6.20;;;10.50;99.90;;;;;;4347521;28;659242;-70
2022/10/06 01:22:09;;;;;;;14.77;6.50;;;10.50;99.90;;;;;;4343762;28;658472;-70
2022/10/06 01:24:57;;;;;;;11.13;6.13;;;10.60;99.90;;;;;;4351683;28;657594;-70
2022/10/06 01:27:46;;;;;;;12.33;6.53;;;10.60;99.90;;;;;;4364962;28;657559;-70
2022/10/06 01:30:35;;;;;;;18.30;7.43;;;10.50;99.90;;;;;;4346487;28;659281;-70
2022/10/06 01:33:22;;;;;;;15.63;7.00;;;10.60;99.90;;;;;;4353661;28;657893;-70
2022/10/06 01:36:10;;;;;;;16.53;7.30;;;10.70;99.90;;;;;;4352703;28;657579;-70
2022/10/06 01:38:57;;;;;;;11.63;6.22;;;10.60;99.90;;;;;;4353514;28;658128;-70
2022/10/06 01:41:46;;;;;;;14.53;6.50;;;10.70;99.90;;;;;;4354329;28;658363;-70
2022/10/06 01:44:33;;;;;;;17.27;6.50;;;10.60;99.90;;;;;;4331909;28;658752;-70
2022/10/06 01:47:21;;;;;;;15.07;6.83;;;10.50;99.90;;;;;;4338594;28;657947;-70
2022/10/06 01:50:08;;;;;;;21.27;7.93;;;10.60;99.90;;;;;;4361254;28;658253;-70
2022/10/06 01:52:56;;;;;;;15.73;6.97;;;10.60;99.90;;;;;;4338231;28;657516;-70
2022/10/06 01:55:43;;;;;;;14.33;6.77;;;10.60;99.90;;;;;;4356481;28;659032;-70
2022/10/06 01:58:32;;;;;;;14.70;6.87;;;10.60;99.90;;;;;;4340379;28;658148;-70
2022/10/06 02:01:19;;;;;;;14.50;6.50;;;10.50;99.90;;;;;;4359368;28;658447;-71
2022/10/06 02:04:06;;;;;;;14.52;6.32;;;10.60;99.90;;;;;;4339644;28;658502;-70
2022/10/06 02:06:54;;;;;;;14.70;6.17;;;10.70;99.90;;;;;;4355833;28;658738;-70
2022/10/06 02:09:41;;;;;;;13.63;6.17;;;10.60;99.90;;;;;;4337937;28;657655;-71
2022/10/06 02:12:30;;;;;;;12.23;5.97;;;10.60;99.90;;;;;;4355986;28;659187;-70
2022/10/06 02:15:19;;;;;;;16.73;6.80;;;10.50;99.90;;;;;;4336536;28;658767;-70
2022/10/06 02:18:06;;;;;;;16.43;5.60;;;10.40;99.90;;;;;;4337682;28;658635;-70
2022/10/06 02:20:53;;;;;;;20.83;6.80;;;10.40;99.90;;;;;;4352686;28;659523;-71
2022/10/06 02:23:40;;;;;;;11.70;6.00;;;10.40;99.90;;;;;;4337523;28;657489;-71
2022/10/06 02:26:28;;;;;;;14.23;6.17;;;10.40;99.90;;;;;;4358404;28;658885;-70
2022/10/06 02:29:15;;;;;;;15.00;6.30;;;10.30;99.90;;;;;;4347760;28;657514;-70
2022/10/06 02:32:04;;;;;;;11.43;6.10;;;10.40;99.90;;;;;;4361954;28;658279;-71
2022/10/06 02:34:51;;;;;;;16.50;5.97;;;10.40;99.90;;;;;;4333759;28;657289;-71
2022/10/06 02:37:39;;;;;;;15.90;6.60;;;10.40;99.90;;;;;;4355534;28;658546;-71
2022/10/06 02:40:26;;;;;;;11.43;6.17;;;10.30;99.90;;;;;;4331822;28;658570;-71
2022/10/06 02:43:13;;;;;;;10.37;5.50;;;10.30;99.90;;;;;;4377189;28;658268;-70
2022/10/06 02:46:01;;;;;;;12.10;5.93;;;10.30;99.90;;;;;;4354961;28;657666;-70
2022/10/06 02:48:50;;;;;;;9.63;5.53;;;10.30;99.90;;;;;;4371312;28;658738;-71
2022/10/06 02:51:37;;;;;;;10.30;5.53;;;10.20;99.90;;;;;;4352314;28;657994;-71
2022/10/06 02:54:25;;;;;;;19.50;5.30;;;10.20;99.90;;;;;;4361793;28;657794;-71
2022/10/06 02:57:14;;;;;;;15.17;5.50;;;10.30;99.90;;;;;;4374786;28;657642;-71
2022/10/06 03:00:01;;;;;;;13.13;5.00;;;10.30;99.90;;;;;;4348559;28;658034;-70
2022/10/06 03:02:48;;;;;;;14.90;5.50;;;10.30;99.90;;;;;;4371105;28;659200;-71
2022/10/06 03:05:37;;;;;;;10.03;5.30;;;10.20;99.90;;;;;;4355027;28;657727;-70
2022/10/06 03:08:24;;;;;;;11.17;5.47;;;10.20;99.90;;;;;;4375081;28;657900;-70
2022/10/06 03:11:12;;;;;;;8.50;5.27;;;10.10;99.90;;;;;;4351193;28;657441;-70
2022/10/06 03:13:59;;;;;;;9.37;4.90;;;10.10;99.90;;;;;;4371462;28;657015;-70
2022/10/06 03:16:46;;;;;;;14.47;5.00;;;10.10;99.90;;;;;;4353322;28;657077;-70
2022/10/06 03:19:33;;;;;;;9.47;5.30;;;10.00;99.90;;;;;;4369998;28;658605;-71
2022/10/06 03:22:22;;;;;;;8.97;4.87;;;9.80;99.90;;;;;;4354849;28;656631;-71
2022/10/06 03:25:10;;;;;;;8.20;4.83;;;9.80;99.90;;;;;;4374039;28;656079;-71
2022/10/06 03:27:57;;;;;;;11.23;4.80;;;9.70;99.90;;;;;;4344580;28;656585;-70
2022/10/06 03:30:44;;;;;;;14.73;4.95;;;9.50;99.90;;;;;;4374155;28;656458;-71
2022/10/06 03:33:31;;;;;;;10.90;5.00;;;9.40;99.90;;;;;;4356535;28;657032;-71
2022/10/06 03:36:19;;;;;;;13.47;5.50;;;9.30;99.90;;;;;;4373066;28;657069;-71
2022/10/06 03:39:07;;;;;;;14.00;5.47;;;9.20;99.90;;;;;;4348752;28;656725;-71
2022/10/06 03:41:55;;;;;;;10.47;4.60;;;9.20;99.90;;;;;;4370304;28;656397;-70
2022/10/06 03:44:42;;;;;;;14.00;5.73;;;9.10;99.90;;;;;;4373449;28;657862;-70
2022/10/06 03:47:30;;;;;;;17.87;5.03;;;8.90;99.90;;;;;;4370314;28;657218;-71
2022/10/06 03:50:17;;;;;;;12.03;5.30;;;9.00;99.90;;;;;;4375165;28;657292;-70
2022/10/06 03:53:04;;;;;;;13.30;5.37;;;8.90;99.90;;;;;;4370041;28;657120;-70
2022/10/06 03:56:00;;;;;;;14.97;5.87;;;8.90;99.90;;;;;;4353852;28;658018;-70
2022/10/06 03:58:50;;;;;;;12.73;5.33;;;9.10;99.90;;;;;;4324502;28;657776;-70
2022/10/06 04:01:38;;;;;;;11.93;5.20;;;8.80;99.90;;;;;;4347082;28;658566;-70
2022/10/06 04:04:25;;;;;;;11.43;4.70;;;8.90;99.90;;;;;;4362351;28;657125;-70
2022/10/06 04:07:12;;;;;;;12.27;4.97;;;8.80;99.90;;;;;;4372512;28;657241;-70
2022/10/06 04:09:59;;;;;;;11.57;5.07;;;8.90;99.90;;;;;;4365096;28;657130;-70
2022/10/06 04:12:48;;;;;;;13.83;5.20;;;8.80;99.90;;;;;;4346468;28;656424;-70
2022/10/06 04:15:35;;;;;;;17.00;4.93;;;8.80;99.90;;;;;;4348560;28;656384;-70
2022/10/06 04:18:22;;;;;;;16.53;6.17;;;8.80;99.90;;;;;;4377168;28;657295;-71
2022/10/06 04:21:09;;;;;;;10.40;4.87;;;8.80;99.90;;;;;;4371347;28;657493;-71
2022/10/06 04:23:57;;;;;;;10.30;5.00;;;8.80;99.90;;;;;;4353679;28;656561;-70
2022/10/06 04:26:45;;;;;;;10.23;5.27;;;8.70;99.90;;;;;;4365834;28;656463;-71
2022/10/06 04:29:34;;;;;;;9.47;4.80;;;8.70;99.90;;;;;;4352231;28;656926;-70
2022/10/06 04:32:21;;;;;;;8.17;4.40;;;8.60;99.90;;;;;;4354595;28;655737;-70
2022/10/06 04:35:09;;;;;;;9.83;5.10;;;8.50;99.90;;;;;;4375771;28;656889;-70
2022/10/06 04:37:56;;;;;;;14.83;5.13;;;8.50;99.90;;;;;;4354223;28;655602;-70
2022/10/06 04:40:44;;;;;;;8.67;4.47;;;8.60;99.90;;;;;;4366397;28;656932;-70
2022/10/06 04:43:31;;;;;;;10.93;4.60;;;8.60;99.90;;;;;;4352745;28;655316;-70
2022/10/06 04:46:20;;;;;;;10.00;4.60;;;8.40;99.90;;;;;;4368161;28;656027;-70
2022/10/06 04:49:07;;;;;;;10.20;4.80;;;8.40;99.90;;;;;;4342419;28;658732;-70
2022/10/06 04:51:54;;;;;;;7.20;4.13;;;8.40;99.90;;;;;;4367623;28;656692;-70
2022/10/06 04:54:41;;;;;;;8.90;4.43;;;8.20;99.90;;;;;;4353338;28;656281;-70
2022/10/06 04:57:28;;;;;;;10.87;4.97;;;8.20;99.90;;;;;;4374596;28;655538;-70
2022/10/06 05:00:25;;;;;;;9.83;4.77;;;8.20;99.90;;;;;;4350502;28;656792;-70
2022/10/06 05:03:14;;;;;;;10.70;4.57;;;8.20;99.90;;;;;;4327607;28;656165;-70
2022/10/06 05:06:04;;;;;;;12.57;4.90;;;8.20;99.90;;;;;;4346308;28;656703;-71
2022/10/06 05:08:53;;;;;;;10.73;4.87;;;8.30;99.90;;;;;;4351686;28;656916;-70
2022/10/06 05:11:40;;;;;;;7.87;4.40;;;8.30;99.90;;;;;;4350698;28;656591;-70
2022/10/06 05:14:27;;;;;;;11.87;4.97;;;8.40;99.90;;;;;;4376059;28;656411;-70
2022/10/06 05:17:14;;;;;;;11.20;4.60;;;8.30;99.90;;;;;;4370798;28;657199;-70
2022/10/06 05:20:04;;;;;;;9.00;4.27;;;8.20;99.90;;;;;;4351122;28;658714;-70
2022/10/06 05:22:51;;;;;;;13.33;4.73;;;8.30;99.90;;;;;;4357321;28;655792;-70
2022/10/06 05:25:38;;;;;;;10.57;4.63;;;8.30;99.90;;;;;;4373380;28;657409;-70
2022/10/06 05:28:26;;;;;;;8.57;4.93;;;8.40;99.90;;;;;;4356659;28;656622;-70
2022/10/06 05:31:15;;;;;;;11.83;4.93;;;8.40;99.90;;;;;;4376579;28;656748;-70
2022/10/06 05:34:03;;;;;;;10.50;4.85;;;8.60;99.90;;;;;;4349525;28;658673;-70
2022/10/06 05:36:51;;;;;;;9.40;4.90;;;8.70;99.90;;;;;;4360981;28;656135;-70
2022/10/06 05:39:39;;;;;;;10.87;5.37;;;8.90;99.90;;;;;;4375616;28;656062;-70
2022/10/06 05:42:26;;;;;;;7.43;4.57;;;9.00;99.90;;;;;;4357684;28;656634;-70
2022/10/06 05:45:13;;;;;;;17.47;5.53;;;9.20;99.90;;;;;;4377593;28;655863;-70
2022/10/06 05:48:00;;;;;;;9.15;5.28;;;9.40;99.90;;;;;;4358297;28;656754;-70
2022/10/06 05:50:48;;;;;;;15.73;5.80;;;9.70;99.90;;;;;;4371423;28;656493;-70
2022/10/06 05:53:37;;;;;;;14.07;5.50;;;10.00;99.90;;;;;;4355359;28;656258;-70
2022/10/06 05:56:24;;;;;;;16.20;5.10;;;10.20;99.90;;;;;;4376708;28;657510;-70
2022/10/06 05:59:11;;;;;;;14.90;5.83;;;10.60;99.90;;;;;;4353889;28;658136;-70
2022/10/06 06:01:59;;;;;;;21.07;5.30;;;10.90;99.90;;;;;;4373790;28;657534;-70
2022/10/06 06:04:46;;;;;;;13.37;5.53;;;11.00;99.90;;;;;;4356365;28;657846;-70
2022/10/06 06:07:33;;;;;;;12.97;5.13;;;11.30;99.90;;;;;;4372425;28;658883;-71
2022/10/06 06:10:21;;;;;;;8.97;4.43;;;11.50;99.90;;;;;;4351497;28;658575;-71
2022/10/06 06:13:09;;;;;;;10.23;5.07;;;11.70;99.90;;;;;;4372697;28;657078;-69
2022/10/06 06:16:03;;;;;;;13.53;5.73;;;11.90;99.90;;;;;;4350523;28;658358;-70
2022/10/06 06:18:50;;;;;;;12.80;5.03;;;12.10;99.90;;;;;;4362179;28;657834;-70
2022/10/06 06:21:37;;;;;;;10.97;4.87;;;12.20;99.90;;;;;;4370410;28;657602;-70
2022/10/06 06:24:24;;;;;;;9.60;5.10;;;12.50;99.90;;;;;;4366075;28;658226;-70
2022/10/06 06:27:13;;;;;;;15.23;5.17;;;12.70;99.90;;;;;;4349848;28;657416;-70
2022/10/06 06:30:00;;;;;;;10.30;5.40;;;12.80;99.90;;;;;;4346648;28;658169;-70
2022/10/06 06:32:48;;;;;;;14.00;5.00;;;13.00;99.90;;;;;;4367709;28;659820;-70
2022/10/06 06:35:36;;;;;;;10.00;5.40;;;13.10;99.90;;;;;;4359328;28;657761;-70
2022/10/06 06:38:24;;;;;;;10.57;5.23;;;13.20;99.90;;;;;;4368924;28;658096;-69
2022/10/06 06:41:15;;;;;;;11.53;5.30;;;13.40;99.90;;;;;;4347357;28;657749;-71
2022/10/06 06:44:03;;;;;;;13.10;5.60;;;13.50;99.90;;;;;;4348226;28;658401;-70
2022/10/06 06:46:51;;;;;;;12.77;5.17;;;13.70;99.90;;;;;;4349342;28;657808;-70
2022/10/06 06:49:38;;;;;;;12.63;5.57;;;13.80;99.90;;;;;;4373944;28;658102;-71
2022/10/06 06:52:25;;;;;;;11.23;5.20;;;13.90;99.90;;;;;;4356834;28;658043;-71
2022/10/06 06:55:12;;;;;;;18.93;4.67;;;14.10;99.90;;;;;;4374186;28;657153;-70
2022/10/06 06:58:00;;;;;;;9.20;5.60;;;14.30;99.90;;;;;;4360320;28;657519;-70
2022/10/06 07:00:48;;;;;;;12.90;5.83;;;14.00;99.90;;;;;;4351850;28;656787;-70
2022/10/06 07:03:35;;;;;;;11.37;5.13;;;13.70;99.90;;;;;;4351458;28;657483;-70
2022/10/06 07:06:25;;;;;;;8.83;4.40;;;13.60;99.90;;;;;;4368746;28;658772;-69
2022/10/06 07:09:13;;;;;;;10.13;5.30;;;13.80;99.90;;;;;;4346100;28;657559;-70
2022/10/06 07:12:00;;;;;;;14.20;5.67;;;13.90;99.90;;;;;;4359606;28;658171;-71
2022/10/06 07:27:06;;;;;;;11.23;5.37;;;14.30;99.90;;;;;;4348071;28;657495;-71
2022/10/06 07:29:54;;;;;;;11.60;5.13;;;14.40;99.90;;;;;;4364600;28;658669;-71
2022/10/06 07:32:41;;;;;;;9.87;4.17;;;14.30;99.90;;;;;;4348292;28;657665;-69
2022/10/06 07:35:30;;;;;;;9.10;4.60;;;14.50;99.90;;;;;;4363524;28;658444;-70
2022/10/06 07:38:17;;;;;;;14.23;4.50;;;14.50;99.90;;;;;;4343196;28;657804;-70
2022/10/06 07:41:04;;;;;;;9.07;5.10;;;14.60;99.90;;;;;;4363899;28;657908;-69
2022/10/06 07:43:52;;;;;;;12.50;5.03;;;14.60;99.90;;;;;;4347186;28;656621;-70
2022/10/06 07:46:39;;;;;;;10.77;4.90;;;14.80;99.90;;;;;;4363739;28;658448;-70
2022/10/06 07:49:26;;;;;;;7.33;4.27;;;15.10;99.90;;;;;;4351010;28;657610;-70
2022/10/06 07:52:15;;;;;;;11.47;4.30;;;15.10;99.90;;;;;;4365186;28;656275;-70
2022/10/06 07:55:02;;;;;;;9.77;4.20;;;15.20;99.90;;;;;;4352223;28;658403;-70
2022/10/06 07:57:51;;;;;;;7.53;3.13;;;15.50;99.90;;;;;;4364532;28;656424;-69
2022/10/06 08:00:38;;;;;;;7.77;4.23;;;15.50;99.90;;;;;;4344392;28;657788;-69
2022/10/06 08:03:26;;;;;;;7.73;4.17;;;15.10;99.90;;;;;;4352071;28;656634;-71
2022/10/06 08:06:15;;;;;;;11.27;4.20;;;15.10;99.90;;;;;;4365405;28;657619;-69
2022/10/06 08:09:04;;;;;;;10.67;3.93;;;15.30;99.90;;;;;;4347001;28;658328;-69
2022/10/06 08:11:51;;;;;;;10.00;4.50;;;15.50;99.90;;;;;;4351094;28;657420;-70
2022/10/06 08:14:38;;;;;;;10.47;4.77;;;15.10;99.90;;;;;;4362022;28;658258;-69
2022/10/06 08:17:26;;;;;;;5.77;3.27;;;15.00;99.90;;;;;;4352714;28;657985;-69
2022/10/06 08:20:13;;;;;;;7.73;4.67;;;15.10;99.90;;;;;;4369888;28;656844;-70
2022/10/06 08:23:00;;;;;;;12.13;4.80;;;15.30;99.90;;;;;;4348389;28;657102;-70
2022/10/06 08:25:52;;;;;;;11.93;4.27;;;15.20;99.90;;;;;;4372236;28;657848;-69
2022/10/06 08:28:39;;;;;;;10.27;4.57;;;15.30;99.90;;;;;;4346970;28;658132;-69
2022/10/06 08:31:26;;;;;;;11.00;5.20;;;15.30;99.90;;;;;;4341113;28;657624;-70
2022/10/06 08:34:14;;;;;;;9.67;5.13;;;15.10;99.90;;;;;;4367233;28;658641;-70
2022/10/06 08:37:02;;;;;;;10.87;4.50;;;15.10;99.90;;;;;;4350302;28;656469;-70
2022/10/06 08:39:50;;;;;;;9.47;5.13;;;15.30;99.90;;;;;;4369515;28;657367;-71
2022/10/06 08:42:40;;;;;;;9.63;5.03;;;16.00;99.90;;;;;;4347720;28;657074;-71
2022/10/06 08:45:30;;;;;;;12.87;5.53;;;16.70;99.90;;;;;;4349016;28;657699;-71
2022/10/06 08:48:18;;;;;;;10.63;4.83;;;17.30;99.90;;;;;;4339310;28;657959;-71
2022/10/06 08:51:11;;;;;;;9.47;4.97;;;17.80;99.90;;;;;;4352392;28;658118;-71
2022/10/06 08:54:02;;;;;;;8.90;4.17;;;18.00;99.90;;;;;;4342886;28;657237;-71
2022/10/06 08:56:53;;;;;;;9.67;3.80;;;18.00;99.90;;;;;;4346485;28;657091;-71
2022/10/06 08:59:42;;;;;;;7.77;3.77;;;18.00;99.90;;;;;;4332179;28;656633;-71
2022/10/06 09:02:30;;;;;;;10.80;3.60;;;18.00;99.90;;;;;;4367312;28;657190;-71
2022/10/06 09:05:24;;;;;;;6.37;2.80;;;18.40;99.90;;;;;;4342937;28;657574;-69
2022/10/06 09:08:19;;;;;;;9.97;3.83;;;18.70;99.90;;;;;;4328954;28;656619;-71
2022/10/06 09:11:14;;;;;;;13.13;3.50;;;18.10;99.90;;;;;;4322178;28;657434;-71
2022/10/06 09:14:03;;;;;;;5.77;3.50;;;18.50;99.90;;;;;;4326349;28;659176;-71
2022/10/06 09:16:53;;;;;;;4.33;2.37;;;18.20;99.90;;;;;;4346817;28;656792;-71
2022/10/06 09:19:43;;;;;;;6.40;3.80;;;18.60;99.90;;;;;;4350844;28;656753;-71
2022/10/06 09:22:31;;;;;;;8.07;3.53;;;18.80;99.90;;;;;;4349343;28;656102;-72
2022/10/06 09:25:20;;;;;;;8.23;3.20;;;19.00;99.90;;;;;;4366661;28;656045;-71
2022/10/06 09:28:10;;;;;;;9.30;3.50;;;19.00;99.90;;;;;;4347438;28;657469;-71
2022/10/06 09:30:58;;;;;;;7.40;2.97;;;19.20;99.90;;;;;;4346712;28;657665;-71
2022/10/06 09:33:47;;;;;;;5.90;3.50;;;19.30;99.90;;;;;;4351198;28;656432;-71
2022/10/06 09:36:38;;;;;;;9.33;3.80;;;19.10;99.90;;;;;;4353463;28;656303;-71
2022/10/06 09:39:28;;;;;;;12.40;4.00;;;18.30;99.90;;;;;;4305977;28;656645;-71
2022/10/06 09:42:18;;;;;;;8.60;4.10;;;18.80;99.90;;;;;;4327350;28;658056;-71
2022/10/06 09:45:08;;;;;;;8.90;4.30;;;18.80;99.90;;;;;;4328087;28;656752;-71
2022/10/06 09:47:56;;;;;;;9.73;3.60;;;18.40;99.90;;;;;;4335093;28;656373;-72
2022/10/06 09:50:44;;;;;;;5.37;2.70;;;18.10;99.90;;;;;;4343308;28;656577;-71
2022/10/06 09:53:31;;;;;;;8.60;4.10;;;18.60;99.90;;;;;;4334883;28;656489;-71
2022/10/06 09:56:19;;;;;;;10.87;3.37;;;19.40;99.90;;;;;;4347789;28;656854;-72
2022/10/06 09:59:06;;;;;;;7.13;3.27;;;19.80;99.90;;;;;;4326530;28;657780;-72
2022/10/06 10:01:54;;;;;;;8.37;3.80;;;19.60;99.90;;;;;;4350467;28;657332;-71
2022/10/06 10:04:41;;;;;;;7.53;3.80;;;20.00;99.90;;;;;;4333982;28;656478;-70
2022/10/06 10:07:30;;;;;;;11.60;4.73;;;20.30;99.90;;;;;;4348293;28;657807;-71
2022/10/06 10:10:19;;;;;;;9.90;4.03;;;19.30;99.90;;;;;;4334959;28;659182;-71
2022/10/06 10:13:18;;;;;;;9.10;4.17;;;20.00;99.90;;;;;;4337762;28;658202;-71
2022/10/06 10:16:05;;;;;;;11.90;4.47;;;19.40;99.90;;;;;;4312030;28;657035;-70
2022/10/06 10:18:53;;;;;;;4.07;2.97;;;19.70;99.90;;;;;;4353680;28;658514;-70
2022/10/06 10:21:41;;;;;;;8.80;3.93;;;19.90;99.90;;;;;;4334726;28;656572;-70
2022/10/06 10:24:41;;;;;;;12.27;4.00;;;20.10;99.90;;;;;;4353687;28;657260;-70
2022/10/06 10:27:31;;;;;;;11.57;3.80;;;20.70;99.90;;;;;;4332518;28;657893;-70
2022/10/06 10:30:19;;;;;;;11.70;3.50;;;20.90;99.90;;;;;;4331128;28;658764;-70
2022/10/06 10:33:09;;;;;;;8.00;3.20;;;19.00;99.90;;;;;;4333385;28;657983;-71
2022/10/06 10:35:57;;;;;;;7.07;2.97;;;19.40;99.90;;;;;;4342274;28;657276;-71
2022/10/06 10:38:44;;;;;;;6.97;3.37;;;20.50;99.90;;;;;;4365786;28;656859;-71
2022/10/06 10:41:37;;;;;;;7.70;3.27;;;21.30;99.90;;;;;;4352015;28;656424;-71
2022/10/06 10:44:31;;;;;;;8.00;3.50;;;21.90;99.90;;;;;;4372151;28;655933;-71
2022/10/06 10:47:22;;;;;;;15.17;3.63;;;20.50;99.90;;;;;;4351742;28;656857;-71
2022/10/06 10:50:18;;;;;;;8.30;3.07;;;20.70;99.90;;;;;;4350592;28;657927;-70
2022/10/06 10:53:08;;;;;;;7.03;3.30;;;20.70;99.90;;;;;;4328151;28;656607;-71
2022/10/06 10:55:56;;;;;;;8.63;3.37;;;20.40;99.90;;;;;;4354908;28;656848;-71
2022/10/06 10:58:44;;;;;;;15.53;4.07;;;20.70;99.90;;;;;;4367609;28;657203;-71
2022/10/06 11:01:33;;;;;;;9.37;3.53;;;20.10;99.90;;;;;;4348545;28;657822;-70
2022/10/06 11:04:21;;;;;;;6.57;3.20;;;20.40;99.90;;;;;;4354207;28;657201;-72
2022/10/06 11:07:12;;;;;;;11.50;3.83;;;21.00;99.90;;;;;;4375473;28;656441;-70
2022/10/06 11:10:01;;;;;;;7.03;3.90;;;20.90;99.90;;;;;;4348482;28;658843;-72
2022/10/06 11:13:03;;;;;;;8.37;3.40;;;20.70;99.90;;;;;;4345662;28;656854;-70
2022/10/06 11:16:17;;;;;;;5.37;3.40;;;21.90;99.90;;;;;;4331625;28;656785;-71
2022/10/06 11:19:13;;;;;;;4.90;3.33;;;21.60;99.90;;;;;;4347511;28;656537;-71
2022/10/06 11:22:02;;;;;;;7.47;3.37;;;22.20;99.90;;;;;;4331081;28;656397;-72
2022/10/06 11:24:54;;;;;;;6.17;2.67;;;22.00;99.90;;;;;;4371987;28;656705;-71
2022/10/06 11:27:43;;;;;;;9.53;3.20;;;22.10;99.90;;;;;;4352276;28;656544;-71
2022/10/06 11:30:32;;;;;;;7.60;3.40;;;21.80;99.90;;;;;;4353751;28;657651;-71
2022/10/06 11:33:21;;;;;;;6.23;3.00;;;22.50;99.90;;;;;;4366067;28;657718;-71
2022/10/06 11:36:11;;;;;;;9.47;3.70;;;22.20;99.90;;;;;;4350694;28;657120;-71
2022/10/06 11:39:00;;;;;;;10.63;4.20;;;20.80;99.90;;;;;;4349519;28;657651;-71
2022/10/06 11:41:49;;;;;;;9.10;3.13;;;21.00;99.90;;;;;;4345511;28;658642;-71
2022/10/06 11:44:38;;;;;;;7.77;3.67;;;20.90;99.90;;;;;;4351892;28;656991;-71
2022/10/06 11:47:28;;;;;;;6.97;3.27;;;20.30;99.90;;;;;;4354107;28;656297;-70
2022/10/06 11:50:35;;;;;;;7.87;3.70;;;20.40;99.90;;;;;;4365251;28;656906;-70
2022/10/06 11:53:43;;;;;;;10.07;3.80;;;19.80;99.90;;;;;;4329425;28;656343;-71
2022/10/06 11:56:39;;;;;;;5.47;3.60;;;19.00;99.90;;;;;;4329434;28;657589;-71
2022/10/06 11:59:30;;;;;;;8.10;3.57;;;19.00;99.90;;;;;;4348125;28;656338;-71
2022/10/06 12:02:36;;;;;;;7.73;3.13;;;19.20;99.90;;;;;;4347491;28;657329;-71
2022/10/06 12:05:31;;;;;;;9.73;3.13;;;19.00;99.90;;;;;;4341102;28;657027;-71
2022/10/06 12:08:32;;;;;;;10.37;3.40;;;19.00;99.90;;;;;;4348411;28;656655;-71
2022/10/06 12:11:38;;;;;;;6.23;3.53;;;18.90;99.90;;;;;;4353172;28;658202;-71
2022/10/06 12:14:30;;;;;;;10.83;3.90;;;18.70;99.90;;;;;;4341550;28;656531;-71
2022/10/06 12:17:20;;;;;;;10.57;3.80;;;18.60;99.90;;;;;;4352079;28;658429;-71
2022/10/06 12:20:11;;;;;;;13.30;3.83;;;18.60;99.90;;;;;;4347830;28;658199;-70
2022/10/06 12:23:01;;;;;;;12.43;3.50;;;18.80;99.90;;;;;;4347496;28;658639;-70
2022/10/06 12:25:52;;;;;;;6.37;3.50;;;18.90;99.90;;;;;;4344360;28;658319;-71
2022/10/06 12:28:43;;;;;;;9.70;3.90;;;19.00;99.90;;;;;;4348797;28;656626;-70
2022/10/06 12:31:45;;;;;;;12.20;3.80;;;19.60;99.90;;;;;;4334976;28;656050;-71
2022/10/06 12:34:41;;;;;;;8.77;3.30;;;20.40;99.90;;;;;;4323741;28;658296;-71
2022/10/06 12:37:42;;;;;;;6.10;3.23;;;21.10;99.90;;;;;;4350220;28;657460;-70
2022/10/06 12:40:55;;;;;;;8.43;3.27;;;21.50;99.90;;;;;;4341420;28;657239;-71
2022/10/06 12:43:53;;;;;;;5.03;2.80;;;21.20;99.90;;;;;;4337366;28;656916;-70
2022/10/06 12:46:43;;;;;;;7.13;3.10;;;22.40;99.90;;;;;;4330390;28;657161;-71
2022/10/06 12:49:46;;;;;;;5.87;2.40;;;22.40;99.90;;;;;;4349205;28;656895;-70
2022/10/06 12:52:43;;;;;;;8.97;2.70;;;22.90;99.90;;;;;;4343161;28;657231;-70
2022/10/06 12:55:39;;;;;;;4.53;2.60;;;22.10;99.90;;;;;;4326853;28;656489;-70
2022/10/06 12:58:31;;;;;;;6.37;3.00;;;22.60;99.90;;;;;;4322850;28;657508;-71
2022/10/06 13:01:18;;;;;;;7.77;2.70;;;21.90;99.90;;;;;;4345175;28;656633;-70
2022/10/06 13:04:05;;;;;;;8.27;2.90;;;22.90;99.90;;;;;;4349871;28;656860;-71
2022/10/06 13:06:52;;;;;;;8.20;3.10;;;23.40;99.90;;;;;;4375331;28;657096;-71
2022/10/06 13:09:40;;;;;;;5.07;2.77;;;23.40;99.90;;;;;;4368313;28;656833;-71
2022/10/06 13:12:29;;;;;;;7.47;2.40;;;22.20;99.90;;;;;;4350365;28;658177;-71
2022/10/06 13:15:20;;;;;;;6.33;2.70;;;21.00;99.90;;;;;;4344553;28;656546;-70
2022/10/06 13:18:11;;;;;;;5.37;2.90;;;20.00;99.90;;;;;;4354827;28;657000;-71
2022/10/06 13:20:59;;;;;;;11.03;2.80;;;19.80;99.90;;;;;;4346301;28;656626;-71
2022/10/06 13:23:46;;;;;;;7.33;2.63;;;19.60;99.90;;;;;;4349698;28;657891;-71
2022/10/06 13:26:34;;;;;;;6.60;2.80;;;19.40;99.90;;;;;;4365423;28;656774;-70
2022/10/06 13:29:21;;;;;;;9.93;2.90;;;19.70;99.90;;;;;;4351123;28;656668;-71
2022/10/06 13:32:16;;;;;;;7.07;3.40;;;19.80;99.90;;;;;;4367448;28;656417;-70
2022/10/06 13:35:04;;;;;;;8.27;3.37;;;19.70;99.90;;;;;;4343115;28;656920;-70
2022/10/06 13:37:51;;;;;;;10.77;3.03;;;19.60;99.90;;;;;;4349292;28;656350;-71
2022/10/06 13:40:38;;;;;;;6.50;3.03;;;19.70;99.90;;;;;;4369701;28;657847;-71
2022/10/06 13:43:25;;;;;;;10.07;2.70;;;19.60;99.90;;;;;;4349641;28;656503;-70
2022/10/06 13:46:13;;;;;;;5.83;3.00;;;19.20;99.90;;;;;;4373261;28;657773;-70
2022/10/06 13:49:04;;;;;;;8.53;2.90;;;19.20;99.90;;;;;;4348732;28;656602;-70
2022/10/06 13:51:52;;;;;;;7.03;2.70;;;19.10;99.90;;;;;;4338708;28;656317;-70
2022/10/06 13:54:40;;;;;;;6.73;3.00;;;19.20;99.90;;;;;;4366490;28;656455;-70
2022/10/06 13:57:35;;;;;;;5.22;2.90;;;19.40;99.90;;;;;;4341948;28;657396;-70
2022/10/06 14:00:25;;;;;;;5.50;2.93;;;19.40;99.90;;;;;;4329662;28;656714;-70
2022/10/06 14:03:20;;;;;;;8.07;3.07;;;19.30;99.90;;;;;;4355050;28;657163;-71
2022/10/06 14:06:14;;;;;;;5.50;2.67;;;19.00;99.90;;;;;;4322573;28;658722;-70
2022/10/06 14:09:03;;;;;;;17.63;3.20;;;19.00;99.90;;;;;;4328075;28;657253;-71
2022/10/06 14:11:51;;;;;;;13.47;3.50;;;19.00;99.90;;;;;;4353350;28;657603;-71
2022/10/06 14:14:38;;;;;;;10.77;2.90;;;19.00;99.90;;;;;;4379738;28;658743;-71
2022/10/06 14:17:27;;;;;;;8.87;2.87;;;18.70;99.90;;;;;;4353520;28;657574;-70
2022/10/06 14:20:35;;;;;;;14.17;3.30;;;18.70;99.90;;;;;;4368756;28;657053;-68
2022/10/06 14:23:43;;;;;;;30.30;7.70;;;18.60;99.90;;;;;;4313512;28;658113;-68
2022/10/06 14:26:31;;;;;;;207.30;45.30;;;18.50;99.90;;;;;;4325745;28;658148;-68
2022/10/06 14:29:19;;;;;;;7.27;3.50;;;18.50;99.90;;;;;;4363930;28;660346;-67
2022/10/06 14:32:10;;;;;;;25.93;8.50;;;18.50;99.90;;;;;;4353391;28;656687;-68
2022/10/06 14:34:57;;;;;;;12.40;4.03;;;18.50;99.90;;;;;;4347486;28;658282;-68
2022/10/06 14:37:44;;;;;;;9.70;3.30;;;18.40;99.90;;;;;;4368171;28;657420;-68